createdAt,value
2019-04-01T00:00:17.616Z,61.60
2019-04-01T00:02:45.817Z,61.50
2019-04-01T00:05:13.508Z,61.80
2019-04-01T00:07:40.981Z,61.60
2019-04-01T00:10:09.259Z,62.70
2019-04-01T00:12:37.324Z,62.30
2019-04-01T00:15:05.191Z,62.70
2019-04-01T00:17:32.978Z,63.00
2019-04-01T00:20:00.490Z,62.90
2019-04-01T00:22:28.055Z,63.30
2019-04-01T00:24:55.737Z,63.50
2019-04-01T00:27:23.379Z,63.50
2019-04-01T00:29:51.379Z,63.50
2019-04-01T00:32:19.148Z,63.50
2019-04-01T00:34:46.738Z,63.30
2019-04-01T00:37:14.119Z,63.00
2019-04-01T00:39:41.786Z,63.00
2019-04-01T00:42:20.072Z,62.90
2019-04-01T00:44:47.462Z,63.10
2019-04-01T00:47:15.187Z,63.00
2019-04-01T00:49:42.524Z,62.20
2019-04-01T00:52:10.035Z,62.30
2019-04-01T00:54:37.815Z,62.70
2019-04-01T00:57:05.593Z,62.50
2019-04-01T00:59:32.925Z,62.10
2019-04-01T01:02:00.388Z,61.80
2019-04-01T01:04:28.144Z,61.30
2019-04-01T01:06:55.555Z,60.80
2019-04-01T01:09:22.995Z,61.10
2019-04-01T01:11:50.741Z,61.90
2019-04-01T01:14:18.392Z,61.90
2019-04-01T01:16:45.907Z,61.20
2019-04-01T01:19:14.720Z,61.50
2019-04-01T01:21:43.159Z,61.40
2019-04-01T01:24:10.634Z,61.50
2019-04-01T01:26:37.968Z,62.00
2019-04-01T01:29:05.430Z,62.30
2019-04-01T01:31:33.631Z,62.90
2019-04-01T01:34:01.193Z,63.50
2019-04-01T01:36:29.191Z,64.00
2019-04-01T01:38:56.956Z,62.10
2019-04-01T01:41:24.921Z,62.20
2019-04-01T01:43:52.415Z,63.00
2019-04-01T01:46:19.767Z,62.90
2019-04-01T01:48:47.267Z,62.80
2019-04-01T01:51:14.830Z,62.60
2019-04-01T01:53:42.932Z,62.20
2019-04-01T01:56:11.236Z,62.00
2019-04-01T01:58:38.997Z,62.60
2019-04-01T02:01:06.489Z,62.70
2019-04-01T02:03:34.491Z,62.50
2019-04-01T02:06:01.907Z,62.90
2019-04-01T02:08:29.387Z,63.00
2019-04-01T02:10:56.737Z,63.50
2019-04-01T02:13:24.065Z,63.40
2019-04-01T02:15:52.100Z,63.50
2019-04-01T02:18:19.475Z,62.80
2019-04-01T02:20:47.231Z,62.90
2019-04-01T02:23:14.746Z,62.80
2019-04-01T02:25:42.124Z,63.10
2019-04-01T02:28:09.840Z,63.40
2019-04-01T02:30:37.659Z,64.00
2019-04-01T02:33:05.572Z,64.20
2019-04-01T02:35:33.489Z,62.90
2019-04-01T02:38:01.019Z,62.50
2019-04-01T02:40:28.332Z,62.20
2019-04-01T02:42:55.950Z,62.70
2019-04-01T02:45:23.333Z,63.10
2019-04-01T02:47:51.074Z,63.70
2019-04-01T02:50:18.597Z,63.10
2019-04-01T02:52:46.000Z,63.30
2019-04-01T02:55:13.763Z,63.50
2019-04-01T02:57:41.621Z,63.30
2019-04-01T03:00:09.071Z,64.40
2019-04-01T03:02:36.411Z,63.20
2019-04-01T03:05:04.469Z,64.30
2019-04-01T03:07:31.817Z,64.30
2019-04-01T03:09:59.598Z,64.50
2019-04-01T03:12:27.395Z,63.10
2019-04-01T03:14:55.021Z,63.20
2019-04-01T03:17:22.622Z,63.80
2019-04-01T03:19:49.997Z,64.20
2019-04-01T03:22:17.729Z,63.70
2019-04-01T03:24:45.255Z,63.50
2019-04-01T03:27:17.068Z,64.10
2019-04-01T03:29:42.555Z,64.00
2019-04-01T03:32:10.076Z,63.70
2019-04-01T03:34:37.722Z,63.80
2019-04-01T03:37:05.767Z,64.50
2019-04-01T03:39:33.294Z,64.50
2019-04-01T03:42:00.885Z,62.80
2019-04-01T03:44:28.512Z,63.30
2019-04-01T03:46:55.847Z,63.90
2019-04-01T03:49:23.311Z,64.60
2019-04-01T03:51:51.091Z,65.30
2019-04-01T03:54:18.418Z,64.60
2019-04-01T03:56:46.222Z,64.70
2019-04-01T03:59:13.960Z,64.70
2019-04-01T04:01:41.730Z,64.50
2019-04-01T04:04:09.219Z,64.20
2019-04-01T04:06:36.768Z,63.00
2019-04-01T04:09:05.490Z,63.20
2019-04-01T04:11:33.017Z,63.30
2019-04-01T04:14:00.657Z,64.10
2019-04-01T04:16:28.023Z,63.90
2019-04-01T04:18:55.548Z,64.80
2019-04-01T04:21:24.087Z,63.90
2019-04-01T04:23:52.155Z,64.00
2019-04-01T04:26:20.187Z,64.60
2019-04-01T04:28:48.060Z,65.50
2019-04-01T04:31:15.559Z,65.80
2019-04-01T04:33:42.929Z,65.90
2019-04-01T04:36:10.686Z,65.90
2019-04-01T04:38:38.095Z,65.70
2019-04-01T04:41:05.476Z,65.50
2019-04-01T04:43:32.937Z,66.40
2019-04-01T04:46:00.645Z,66.80
2019-04-01T04:48:28.448Z,66.40
2019-04-01T04:50:55.833Z,65.80
2019-04-01T04:53:23.346Z,65.60
2019-04-01T04:55:50.731Z,66.00
2019-04-01T04:58:18.250Z,66.60
2019-04-01T05:00:45.753Z,66.00
2019-04-01T05:03:13.212Z,65.30
2019-04-01T05:05:40.759Z,64.70
2019-04-01T05:08:08.120Z,64.20
2019-04-01T05:10:35.628Z,65.30
2019-04-01T05:13:03.013Z,66.40
2019-04-01T05:15:30.489Z,67.40
2019-04-01T05:17:58.003Z,67.80
2019-04-01T05:20:26.324Z,67.80
2019-04-01T05:22:54.256Z,67.70
2019-04-01T05:25:22.294Z,67.70
2019-04-01T05:27:52.873Z,68.00
2019-04-01T05:30:39.924Z,67.50
2019-04-01T05:33:10.314Z,67.60
2019-04-01T05:35:37.951Z,68.00
2019-04-01T05:38:06.096Z,68.50
2019-04-01T05:40:34.601Z,68.30
2019-04-01T05:43:03.425Z,67.60
2019-04-01T05:45:31.296Z,67.70
2019-04-01T05:47:59.200Z,67.50
2019-04-01T05:50:27.899Z,67.10
2019-04-01T05:52:55.683Z,67.50
2019-04-01T05:55:23.198Z,67.50
2019-04-01T05:57:50.661Z,67.80
2019-04-01T06:00:24.158Z,67.90
2019-04-01T06:02:51.968Z,68.70
2019-04-01T06:05:19.343Z,69.20
2019-04-01T06:07:46.818Z,69.10
2019-04-01T06:10:14.386Z,69.20
2019-04-01T06:12:42.105Z,69.50
2019-04-01T06:15:09.708Z,69.40
2019-04-01T06:17:38.554Z,69.60
2019-04-01T06:20:06.747Z,69.50
2019-04-01T06:22:34.155Z,69.60
2019-04-01T06:25:01.512Z,69.90
2019-04-01T06:27:29.651Z,70.60
2019-04-01T06:29:59.267Z,71.30
2019-04-01T06:32:26.741Z,70.30
2019-04-01T06:34:54.209Z,70.40
2019-04-01T06:37:22.999Z,70.50
2019-04-01T06:39:50.669Z,70.50
2019-04-01T06:42:18.991Z,70.90
2019-04-01T06:44:46.863Z,70.40
2019-04-01T06:47:14.692Z,70.10
2019-04-01T06:49:42.523Z,69.80
2019-04-01T06:52:10.022Z,71.10
2019-04-01T06:54:37.389Z,71.30
2019-04-01T06:57:04.848Z,71.30
2019-04-01T06:59:32.356Z,71.80
2019-04-01T07:01:59.708Z,71.30
2019-04-01T07:04:27.669Z,70.40
2019-04-01T07:06:55.523Z,70.90
2019-04-01T07:09:22.980Z,70.50
2019-04-01T07:11:50.428Z,70.10
2019-04-01T07:14:18.365Z,71.20
2019-04-01T07:16:45.752Z,71.30
2019-04-01T07:19:13.119Z,71.40
2019-04-01T07:21:40.853Z,70.90
2019-04-01T07:24:08.516Z,70.80
2019-04-01T07:26:36.588Z,71.80
2019-04-01T07:29:03.925Z,70.60
2019-04-01T07:31:31.438Z,72.30
2019-04-01T07:33:59.159Z,72.40
2019-04-01T07:36:27.037Z,72.40
2019-04-01T07:38:54.735Z,72.10
2019-04-01T07:41:22.244Z,73.00
2019-04-01T07:43:49.691Z,73.00
2019-04-01T07:46:17.189Z,72.80
2019-04-01T07:48:44.996Z,73.40
2019-04-01T07:51:12.331Z,73.20
2019-04-01T07:53:40.936Z,73.90
2019-04-01T07:56:08.405Z,73.50
2019-04-01T07:58:35.993Z,74.20
2019-04-01T08:01:03.480Z,73.00
2019-04-01T08:03:31.243Z,74.00
2019-04-01T08:05:58.745Z,73.10
2019-04-01T08:08:26.295Z,72.70
2019-04-01T08:10:53.606Z,72.50
2019-04-01T08:13:20.984Z,72.60
2019-04-01T08:15:48.543Z,73.00
2019-04-01T08:18:16.145Z,72.90
2019-04-01T08:20:43.607Z,72.50
2019-04-01T08:23:11.263Z,72.40
2019-04-01T08:25:38.616Z,71.60
2019-04-01T08:28:05.968Z,73.50
2019-04-01T08:30:33.448Z,71.10
2019-04-01T08:33:02.652Z,70.40
2019-04-01T08:35:30.162Z,71.10
2019-04-01T08:37:57.678Z,71.40
2019-04-01T08:40:25.181Z,71.40
2019-04-01T08:42:52.936Z,70.20
2019-04-01T08:45:20.319Z,71.00
2019-04-01T08:47:47.781Z,71.70
2019-04-01T08:50:15.323Z,71.20
2019-04-01T08:52:43.308Z,70.00
2019-04-01T08:55:10.914Z,69.70
2019-04-01T08:57:39.537Z,69.50
2019-04-01T09:00:07.774Z,69.70
2019-04-01T09:02:35.594Z,69.90
2019-04-01T09:05:03.384Z,70.20
2019-04-01T09:07:31.225Z,69.50
2019-04-01T09:09:59.175Z,68.50
2019-04-01T09:12:26.946Z,68.00
2019-04-01T09:14:54.979Z,68.70
2019-04-01T09:17:23.060Z,68.30
2019-04-01T09:19:50.523Z,67.10
2019-04-01T09:22:18.022Z,67.30
2019-04-01T09:24:45.401Z,68.30
2019-04-01T09:27:12.781Z,67.30
2019-04-01T09:29:40.315Z,69.00
2019-04-01T09:32:07.961Z,65.30
2019-04-01T09:34:36.249Z,67.00
2019-04-01T09:37:03.656Z,65.20
2019-04-01T09:39:31.169Z,65.50
2019-04-01T09:41:58.897Z,66.70
2019-04-01T09:44:36.493Z,64.70
2019-04-01T09:46:56.501Z,63.70
2019-04-01T09:49:24.011Z,64.10
2019-04-01T09:51:51.813Z,64.30
2019-04-01T09:54:19.351Z,64.10
2019-04-01T09:56:46.666Z,63.30
2019-04-01T09:59:14.753Z,64.00
2019-04-01T10:01:42.263Z,64.10
2019-04-01T10:04:11.098Z,64.30
2019-04-01T10:06:38.917Z,63.00
2019-04-01T10:09:07.488Z,62.80
2019-04-01T10:11:35.474Z,63.90
2019-04-01T10:14:03.513Z,62.00
2019-04-01T10:16:31.512Z,64.30
2019-04-01T10:19:00.136Z,61.80
2019-04-01T10:21:27.590Z,60.00
2019-04-01T10:23:55.098Z,62.50
2019-04-01T10:26:22.440Z,61.40
2019-04-01T10:28:50.506Z,60.60
2019-04-01T10:31:17.993Z,59.70
2019-04-01T10:33:45.387Z,59.50
2019-04-01T10:36:13.844Z,59.40
2019-04-01T10:38:41.684Z,58.70
2019-04-01T10:41:09.150Z,58.80
2019-04-01T10:43:37.390Z,58.70
2019-04-01T10:46:04.857Z,57.80
2019-04-01T10:48:32.293Z,59.70
2019-04-01T10:51:00.606Z,56.80
2019-04-01T10:53:28.478Z,58.50
2019-04-01T10:55:57.069Z,59.50
2019-04-01T10:58:24.649Z,59.70
2019-04-01T11:00:52.578Z,58.30
2019-04-01T11:03:20.101Z,58.90
2019-04-01T11:05:47.619Z,58.20
2019-04-01T11:08:15.114Z,58.90
2019-04-01T11:10:42.601Z,58.50
2019-04-01T11:13:10.330Z,58.00
2019-04-01T11:15:38.281Z,58.70
2019-04-01T11:18:05.796Z,57.70
2019-04-01T11:20:33.787Z,56.40
2019-04-01T11:23:02.795Z,57.30
2019-04-01T11:25:31.425Z,57.50
2019-04-01T11:27:59.052Z,56.80
2019-04-01T11:30:26.883Z,56.80
2019-04-01T11:32:54.773Z,56.70
2019-04-01T11:35:22.370Z,57.30
2019-04-01T11:37:51.063Z,56.70
2019-04-01T11:40:18.725Z,55.60
2019-04-01T11:42:46.267Z,57.00
2019-04-01T11:45:13.747Z,55.30
2019-04-01T11:47:41.402Z,55.50
2019-04-01T11:50:08.932Z,55.80
2019-04-01T11:52:37.886Z,54.70
2019-04-01T11:55:08.905Z,55.80
2019-04-01T11:57:37.225Z,54.70
2019-04-01T12:00:12.392Z,54.90
2019-04-01T12:02:39.430Z,54.40
2019-04-01T12:05:07.092Z,55.40
2019-04-01T12:07:34.803Z,54.40
2019-04-01T12:10:02.268Z,54.10
2019-04-01T12:12:29.848Z,53.50
2019-04-01T12:14:57.389Z,53.60
2019-04-01T12:17:25.294Z,54.80
2019-04-01T12:19:53.301Z,54.30
2019-04-01T12:22:21.392Z,54.40
2019-04-01T12:24:49.447Z,54.40
2019-04-01T12:27:17.128Z,53.30
2019-04-01T12:29:48.085Z,52.30
2019-04-01T12:32:14.401Z,52.50
2019-04-01T12:34:42.307Z,52.90
2019-04-01T12:37:10.125Z,53.50
2019-04-01T12:39:38.020Z,53.80
2019-04-01T12:42:06.037Z,52.70
2019-04-01T12:44:33.537Z,52.60
2019-04-01T12:47:01.366Z,51.90
2019-04-01T12:49:29.871Z,51.20
2019-04-01T12:51:58.398Z,51.70
2019-04-01T12:54:26.082Z,49.80
2019-04-01T12:56:53.758Z,51.20
2019-04-01T12:59:21.937Z,49.20
2019-04-01T13:01:49.689Z,50.50
2019-04-01T13:04:18.447Z,50.50
2019-04-01T13:06:45.920Z,49.60
2019-04-01T13:09:13.354Z,50.70
2019-04-01T13:11:42.014Z,49.60
2019-04-01T13:14:09.604Z,50.20
2019-04-01T13:16:37.068Z,48.70
2019-04-01T13:19:04.883Z,49.20
2019-04-01T13:21:34.623Z,49.40
2019-04-01T13:24:01.728Z,49.10
2019-04-01T13:26:30.294Z,48.00
2019-04-01T13:28:58.626Z,48.90
2019-04-01T13:31:26.751Z,48.40
2019-04-01T13:33:54.521Z,48.30
2019-04-01T13:36:22.145Z,47.30
2019-04-01T13:38:49.596Z,47.10
2019-04-01T13:41:17.434Z,47.50
2019-04-01T13:43:45.271Z,46.30
2019-04-01T13:46:12.750Z,46.00
2019-04-01T13:48:40.611Z,46.30
2019-04-01T13:51:09.274Z,45.90
2019-04-01T13:53:36.782Z,46.70
2019-04-01T13:56:04.246Z,45.50
2019-04-01T13:58:31.640Z,44.70
2019-04-01T14:01:00.643Z,45.80
2019-04-01T14:03:28.381Z,44.10
2019-04-01T14:05:57.527Z,43.80
2019-04-01T14:08:25.280Z,45.00
2019-04-01T14:10:54.475Z,44.30
2019-04-01T14:13:22.026Z,43.80
2019-04-01T14:15:51.368Z,44.30
2019-04-01T14:18:19.002Z,45.80
2019-04-01T14:20:46.504Z,44.70
2019-04-01T14:23:14.338Z,45.30
2019-04-01T14:25:43.044Z,45.30
2019-04-01T14:28:10.735Z,44.40
2019-04-01T14:30:38.561Z,43.70
2019-04-01T14:33:06.035Z,43.30
2019-04-01T14:35:35.575Z,43.00
2019-04-01T14:38:03.323Z,43.30
2019-04-01T14:40:32.704Z,44.50
2019-04-01T14:43:00.358Z,43.30
2019-04-01T14:45:27.854Z,42.70
2019-04-01T14:47:57.468Z,44.30
2019-04-01T14:50:24.989Z,44.20
2019-04-01T14:52:53.852Z,44.00
2019-04-01T14:55:21.257Z,44.20
2019-04-01T14:57:48.820Z,43.10
2019-04-01T15:00:17.323Z,43.50
2019-04-01T15:02:44.784Z,40.90
2019-04-01T15:05:12.574Z,42.30
2019-04-01T15:07:40.143Z,42.00
2019-04-01T15:10:07.704Z,41.90
2019-04-01T15:12:35.365Z,41.80
2019-04-01T15:15:04.159Z,42.80
2019-04-01T15:17:36.677Z,41.00
2019-04-01T15:20:03.223Z,40.40
2019-04-01T15:22:31.416Z,41.90
2019-04-01T15:24:59.307Z,39.80
2019-04-01T15:27:27.024Z,41.40
2019-04-01T15:29:54.376Z,40.60
2019-04-01T15:32:23.045Z,41.50
2019-04-01T15:34:51.134Z,39.40
2019-04-01T15:37:18.581Z,39.50
2019-04-01T15:39:47.284Z,39.90
2019-04-01T15:42:15.094Z,39.30
2019-04-01T15:44:42.523Z,40.10
2019-04-01T15:47:10.286Z,41.40
2019-04-01T15:49:38.026Z,38.30
2019-04-01T15:52:05.733Z,37.30
2019-04-01T15:54:33.925Z,37.30
2019-04-01T15:57:01.313Z,36.60
2019-04-01T15:59:28.989Z,35.80
2019-04-01T16:01:56.480Z,36.30
2019-04-01T16:04:24.143Z,36.30
2019-04-01T16:06:51.591Z,35.70
2019-04-01T16:09:20.511Z,34.00
2019-04-01T16:11:47.996Z,35.20
2019-04-01T16:14:19.007Z,35.50
2019-04-01T16:16:45.281Z,35.40
2019-04-01T16:19:13.010Z,36.40
2019-04-01T16:21:40.709Z,35.50
2019-04-01T16:24:11.069Z,36.30
2019-04-01T16:26:38.181Z,36.60
2019-04-01T16:29:06.183Z,36.50
2019-04-01T16:31:34.126Z,36.30
2019-04-01T16:34:01.682Z,36.80
2019-04-01T16:36:29.029Z,36.90
2019-04-01T16:38:56.850Z,35.80
2019-04-01T16:41:24.684Z,36.00
2019-04-01T16:43:52.130Z,36.10
2019-04-01T16:46:19.994Z,36.20
2019-04-01T16:48:47.748Z,36.40
2019-04-01T16:51:15.226Z,36.40
2019-04-01T16:53:44.534Z,35.30
2019-04-01T16:56:12.278Z,35.80
2019-04-01T16:58:39.890Z,36.40
2019-04-01T17:01:07.405Z,36.30
2019-04-01T17:03:35.188Z,37.20
2019-04-01T17:06:02.622Z,37.20
2019-04-01T17:08:30.169Z,37.70
2019-04-01T17:10:57.495Z,38.60
2019-04-01T17:13:25.099Z,39.30
2019-04-01T17:15:52.560Z,39.00
2019-04-01T17:18:19.936Z,38.70
2019-04-01T17:20:48.365Z,38.30
2019-04-01T17:23:16.554Z,38.70
2019-04-01T17:25:44.203Z,38.40
2019-04-01T17:28:11.562Z,39.50
2019-04-01T17:30:39.554Z,39.50
2019-04-01T17:33:08.526Z,37.70
2019-04-01T17:35:36.488Z,38.80
2019-04-01T17:38:03.996Z,39.20
2019-04-01T17:40:31.859Z,39.20
2019-04-01T17:42:59.633Z,38.70
2019-04-01T17:45:33.295Z,39.30
2019-04-01T17:48:00.782Z,40.00
2019-04-01T17:50:29.196Z,40.70
2019-04-01T17:52:57.283Z,41.40
2019-04-01T17:55:25.810Z,41.80
2019-04-01T17:57:53.188Z,42.20
2019-04-01T18:00:23.596Z,41.00
2019-04-01T18:02:51.072Z,40.30
2019-04-01T18:05:20.924Z,40.80
2019-04-01T18:07:48.439Z,40.80
2019-04-01T18:10:16.204Z,40.90
2019-04-01T18:12:43.559Z,40.80
2019-04-01T18:15:11.601Z,40.50
2019-04-01T18:17:40.354Z,39.90
2019-04-01T18:20:09.085Z,40.50
2019-04-01T18:22:36.490Z,40.90
2019-04-01T18:25:04.178Z,41.00
2019-04-01T18:27:31.678Z,41.70
2019-04-01T18:29:59.423Z,42.10
2019-04-01T18:32:26.915Z,42.00
2019-04-01T18:34:54.295Z,42.10
2019-04-01T18:37:23.233Z,42.80
2019-04-01T18:39:50.846Z,43.00
2019-04-01T18:42:19.182Z,43.00
2019-04-01T18:44:46.649Z,43.50
2019-04-01T18:47:14.447Z,43.50
2019-04-01T18:49:42.238Z,43.90
2019-04-01T18:52:10.171Z,43.70
2019-04-01T18:54:37.863Z,43.90
2019-04-01T18:57:05.316Z,44.20
2019-04-01T18:59:33.068Z,44.20
2019-04-01T19:02:00.396Z,44.00
2019-04-01T19:04:27.931Z,44.30
2019-04-01T19:06:55.341Z,44.30
2019-04-01T19:09:22.802Z,44.10
2019-04-01T19:12:02.957Z,44.20
2019-04-01T19:14:19.851Z,44.00
2019-04-01T19:16:47.687Z,44.10
2019-04-01T19:19:15.265Z,44.20
2019-04-01T19:21:42.613Z,44.30
2019-04-01T19:24:10.816Z,44.20
2019-04-01T19:26:38.187Z,44.40
2019-04-01T19:29:05.628Z,45.40
2019-04-01T19:31:33.050Z,45.50
2019-04-01T19:34:00.409Z,46.00
2019-04-01T19:36:28.003Z,46.40
2019-04-01T19:38:55.865Z,45.90
2019-04-01T19:41:23.266Z,46.10
2019-04-01T19:43:51.264Z,46.00
2019-04-01T19:46:19.024Z,46.60
2019-04-01T19:48:46.853Z,46.30
2019-04-01T19:51:14.274Z,46.30
2019-04-01T19:53:41.826Z,47.00
2019-04-01T19:56:10.572Z,47.20
2019-04-01T19:58:38.195Z,47.30
2019-04-01T20:01:05.682Z,48.10
2019-04-01T20:03:33.035Z,48.20
2019-04-01T20:06:00.504Z,47.30
2019-04-01T20:08:28.203Z,47.80
2019-04-01T20:10:55.625Z,48.30
2019-04-01T20:13:22.986Z,48.30
2019-04-01T20:15:50.465Z,48.20
2019-04-01T20:18:17.959Z,48.10
2019-04-01T20:20:45.481Z,48.90
2019-04-01T20:23:13.090Z,48.10
2019-04-01T20:25:40.568Z,49.10
2019-04-01T20:28:08.436Z,48.30
2019-04-01T20:30:36.008Z,48.30
2019-04-01T20:33:16.556Z,48.60
2019-04-01T20:35:34.501Z,48.60
2019-04-01T20:38:02.148Z,48.70
2019-04-01T20:40:30.378Z,48.70
2019-04-01T20:42:58.266Z,48.40
2019-04-01T20:45:25.852Z,48.60
2019-04-01T20:47:53.359Z,49.50
2019-04-01T20:50:20.919Z,49.80
2019-04-01T20:52:50.125Z,50.80
2019-04-01T20:55:17.646Z,51.30
2019-04-01T20:57:46.029Z,51.20
2019-04-01T21:00:14.529Z,50.70
2019-04-01T21:02:42.114Z,50.50
2019-04-01T21:05:09.870Z,50.80
2019-04-01T21:07:37.237Z,51.00
2019-04-01T21:10:05.154Z,51.00
2019-04-01T21:12:32.758Z,50.50
2019-04-01T21:15:01.448Z,50.30
2019-04-01T21:17:29.511Z,50.50
2019-04-01T21:19:57.119Z,52.00
2019-04-01T21:22:24.601Z,52.00
2019-04-01T21:24:52.246Z,52.30
2019-04-01T21:27:19.652Z,52.10
2019-04-01T21:29:52.868Z,52.60
2019-04-01T21:32:21.216Z,52.20
2019-04-01T21:34:49.209Z,51.80
2019-04-01T21:37:16.558Z,52.50
2019-04-01T21:39:45.067Z,51.80
2019-04-01T21:42:12.906Z,51.90
2019-04-01T21:44:40.275Z,52.30
2019-04-01T21:47:07.734Z,52.50
2019-04-01T21:49:36.873Z,52.50
2019-04-01T21:52:05.051Z,52.80
2019-04-01T21:54:32.831Z,52.40
2019-04-01T21:57:01.180Z,52.20
2019-04-01T21:59:28.593Z,51.90
2019-04-01T22:01:56.492Z,51.90
2019-04-01T22:04:23.998Z,52.10
2019-04-01T22:06:51.398Z,52.70
2019-04-01T22:09:19.077Z,52.60
2019-04-01T22:11:46.378Z,53.00
2019-04-01T22:14:13.919Z,53.70
2019-04-01T22:16:41.420Z,53.20
2019-04-01T22:19:09.192Z,53.10
2019-04-01T22:21:36.863Z,53.00
2019-04-01T22:24:04.692Z,53.40
2019-04-01T22:26:32.412Z,53.60
2019-04-01T22:28:59.917Z,53.20
2019-04-01T22:31:27.404Z,53.40
2019-04-01T22:33:55.212Z,53.40
2019-04-01T22:36:30.971Z,53.30
2019-04-01T22:38:52.304Z,53.30
2019-04-01T22:41:20.156Z,53.50
2019-04-01T22:43:47.886Z,53.50
2019-04-01T22:46:18.146Z,53.10
2019-04-01T22:48:45.789Z,54.00
2019-04-01T22:51:13.449Z,53.50
2019-04-01T22:53:40.948Z,53.50
2019-04-01T22:56:08.404Z,53.70
2019-04-01T22:58:35.875Z,53.80
2019-04-01T23:01:03.314Z,53.80
2019-04-01T23:03:30.700Z,54.00
2019-04-01T23:05:59.058Z,54.00
2019-04-01T23:08:26.438Z,54.20
2019-04-01T23:10:53.971Z,54.40
2019-04-01T23:13:21.552Z,54.40
2019-04-01T23:15:49.274Z,54.50
2019-04-01T23:18:17.040Z,54.80
2019-04-01T23:20:44.560Z,55.00
2019-04-01T23:23:12.094Z,55.50
2019-04-01T23:25:39.630Z,55.80
2019-04-01T23:28:07.077Z,55.90
2019-04-01T23:30:34.594Z,56.60
2019-04-01T23:33:02.394Z,56.50
2019-04-01T23:35:29.886Z,56.50
2019-04-01T23:37:57.603Z,56.90
2019-04-01T23:40:25.349Z,57.30
2019-04-01T23:42:52.874Z,57.80
2019-04-01T23:45:21.146Z,58.10
2019-04-01T23:47:48.991Z,58.10
2019-04-01T23:50:16.367Z,57.80
2019-04-01T23:52:43.849Z,58.00
2019-04-01T23:55:12.550Z,58.00
2019-04-01T23:57:40.412Z,56.60
